createdAt,value
2019-06-08T07:27:23.667Z,99.90
2019-06-08T07:54:03.489Z,99.50
2019-06-08T07:56:32.328Z,99.90
2019-06-08T07:59:01.210Z,99.90
2019-06-08T08:01:36.203Z,99.90
2019-06-08T08:04:00.897Z,99.90
2019-06-08T08:06:30.614Z,99.90
2019-06-08T08:08:59.603Z,96.70
2019-06-08T08:11:28.477Z,95.10
2019-06-08T08:13:57.591Z,93.10
2019-06-08T09:22:56.615Z,73.20
2019-06-08T09:25:19.830Z,72.50
2019-06-08T09:27:48.777Z,75.10
2019-06-08T09:30:18.336Z,73.20
2019-06-08T09:32:47.918Z,72.10
2019-06-08T09:35:18.648Z,72.00
2019-06-08T09:50:31.170Z,71.30
2019-06-08T09:53:14.917Z,72.60
2019-06-08T09:55:30.657Z,73.40
2019-06-08T09:58:05.110Z,72.30
2019-06-08T10:00:30.111Z,72.10
2019-06-08T10:03:02.167Z,71.60
2019-06-08T10:05:29.548Z,69.60
2019-06-08T10:08:00.468Z,68.80
2019-06-08T10:14:13.807Z,68.70
2019-06-08T10:45:08.034Z,68.60
2019-06-08T10:47:33.470Z,70.80
2019-06-08T10:50:07.454Z,70.00
2019-06-08T10:52:32.942Z,70.40
2019-06-08T10:55:04.932Z,68.70
2019-06-08T10:57:32.653Z,67.70
2019-06-08T11:00:10.887Z,67.90
2019-06-08T11:02:32.042Z,70.50
2019-06-08T11:05:04.718Z,70.80
2019-06-08T11:07:31.634Z,69.60
2019-06-08T11:10:02.063Z,72.30
2019-06-08T11:12:31.436Z,71.50
2019-06-08T11:15:01.997Z,71.40
2019-06-08T11:17:31.304Z,70.90
2019-06-08T11:20:02.236Z,70.30
2019-06-08T11:27:42.220Z,72.00
2019-06-08T11:30:20.118Z,72.20
2019-06-08T11:32:41.739Z,73.20
2019-06-08T11:35:12.488Z,71.40
2019-06-08T11:37:41.311Z,73.70
2019-06-08T12:13:33.120Z,70.20
2019-06-08T12:16:03.076Z,72.00
2019-06-08T12:18:32.316Z,72.50
2019-06-08T12:21:01.518Z,71.00
2019-06-08T12:23:30.500Z,71.20
2019-06-08T12:40:41.078Z,67.40
2019-06-08T12:43:11.381Z,68.90
2019-06-08T12:45:39.665Z,68.80
2019-06-08T12:48:14.139Z,69.70
2019-06-08T12:50:39.200Z,69.70
